sensor_id;sensor_type;location;lat;lon;timestamp;P1;durP1;ratioP1;P2;durP2;ratioP2
76606;SDS011;65498;50.916;4.698;2023-05-07T00:00:11;9.18;;;4.70;;
76606;SDS011;65498;50.916;4.698;2023-05-07T00:02:41;9.45;;;4.50;;
76606;SDS011;65498;50.916;4.698;2023-05-07T00:05:10;10.32;;;4.65;;
76606;SDS011;65498;50.916;4.698;2023-05-07T00:07:38;9.25;;;4.35;;
76606;SDS011;65498;50.916;4.698;2023-05-07T00:10:06;11.48;;;4.45;;
76606;SDS011;65498;50.916;4.698;2023-05-07T00:12:34;10.50;;;4.22;;
76606;SDS011;65498;50.916;4.698;2023-05-07T00:15:02;10.50;;;3.80;;
76606;SDS011;65498;50.916;4.698;2023-05-07T00:17:30;9.60;;;4.12;;
76606;SDS011;65498;50.916;4.698;2023-05-07T00:19:57;9.28;;;4.12;;
76606;SDS011;65498;50.916;4.698;2023-05-07T00:22:25;9.33;;;4.62;;
76606;SDS011;65498;50.916;4.698;2023-05-07T00:24:53;10.95;;;4.58;;
76606;SDS011;65498;50.916;4.698;2023-05-07T00:27:20;15.20;;;4.25;;
76606;SDS011;65498;50.916;4.698;2023-05-07T00:29:48;10.85;;;4.03;;
76606;SDS011;65498;50.916;4.698;2023-05-07T00:32:16;9.43;;;4.37;;
76606;SDS011;65498;50.916;4.698;2023-05-07T00:34:43;15.10;;;5.72;;
76606;SDS011;65498;50.916;4.698;2023-05-07T00:37:11;8.80;;;4.45;;
76606;SDS011;65498;50.916;4.698;2023-05-07T00:39:38;11.20;;;4.28;;
76606;SDS011;65498;50.916;4.698;2023-05-07T00:42:06;9.88;;;4.00;;
76606;SDS011;65498;50.916;4.698;2023-05-07T00:44:33;8.73;;;4.78;;
76606;SDS011;65498;50.916;4.698;2023-05-07T00:47:02;8.60;;;4.25;;
76606;SDS011;65498;50.916;4.698;2023-05-07T00:49:38;7.83;;;3.70;;
76606;SDS011;65498;50.916;4.698;2023-05-07T00:52:08;8.58;;;3.90;;
76606;SDS011;65498;50.916;4.698;2023-05-07T00:54:38;10.15;;;4.87;;
76606;SDS011;65498;50.916;4.698;2023-05-07T00:57:06;8.93;;;4.30;;
76606;SDS011;65498;50.916;4.698;2023-05-07T00:59:35;7.65;;;3.72;;
76606;SDS011;65498;50.916;4.698;2023-05-07T01:02:03;8.58;;;4.20;;
76606;SDS011;65498;50.916;4.698;2023-05-07T01:04:30;8.75;;;3.87;;
76606;SDS011;65498;50.916;4.698;2023-05-07T01:06:58;9.45;;;3.72;;
76606;SDS011;65498;50.916;4.698;2023-05-07T01:09:27;9.00;;;4.05;;
76606;SDS011;65498;50.916;4.698;2023-05-07T01:11:55;12.40;;;4.30;;
76606;SDS011;65498;50.916;4.698;2023-05-07T01:14:24;7.70;;;3.52;;
76606;SDS011;65498;50.916;4.698;2023-05-07T01:16:52;7.33;;;3.77;;
76606;SDS011;65498;50.916;4.698;2023-05-07T01:19:20;9.53;;;3.70;;
76606;SDS011;65498;50.916;4.698;2023-05-07T01:21:48;8.60;;;4.85;;
76606;SDS011;65498;50.916;4.698;2023-05-07T01:24:17;10.45;;;4.53;;
76606;SDS011;65498;50.916;4.698;2023-05-07T01:26:45;8.45;;;3.60;;
76606;SDS011;65498;50.916;4.698;2023-05-07T01:29:12;7.78;;;3.47;;
76606;SDS011;65498;50.916;4.698;2023-05-07T01:31:40;8.65;;;3.67;;
76606;SDS011;65498;50.916;4.698;2023-05-07T01:34:09;8.18;;;4.28;;
76606;SDS011;65498;50.916;4.698;2023-05-07T01:36:39;8.68;;;3.67;;
76606;SDS011;65498;50.916;4.698;2023-05-07T01:39:08;7.60;;;3.70;;
76606;SDS011;65498;50.916;4.698;2023-05-07T01:41:37;9.97;;;4.07;;
76606;SDS011;65498;50.916;4.698;2023-05-07T01:44:04;8.73;;;3.98;;
76606;SDS011;65498;50.916;4.698;2023-05-07T01:46:33;8.13;;;3.30;;
76606;SDS011;65498;50.916;4.698;2023-05-07T01:49:02;9.33;;;3.80;;
76606;SDS011;65498;50.916;4.698;2023-05-07T01:51:30;7.90;;;3.80;;
76606;SDS011;65498;50.916;4.698;2023-05-07T01:53:58;7.65;;;3.58;;
76606;SDS011;65498;50.916;4.698;2023-05-07T01:56:26;8.95;;;3.80;;
76606;SDS011;65498;50.916;4.698;2023-05-07T01:58:53;8.80;;;3.72;;
76606;SDS011;65498;50.916;4.698;2023-05-07T02:01:21;8.30;;;3.70;;
76606;SDS011;65498;50.916;4.698;2023-05-07T02:03:49;9.60;;;3.87;;
76606;SDS011;65498;50.916;4.698;2023-05-07T02:06:16;8.20;;;3.52;;
76606;SDS011;65498;50.916;4.698;2023-05-07T02:08:45;8.00;;;3.33;;
76606;SDS011;65498;50.916;4.698;2023-05-07T02:11:13;9.83;;;3.10;;
76606;SDS011;65498;50.916;4.698;2023-05-07T02:13:40;9.35;;;3.87;;
76606;SDS011;65498;50.916;4.698;2023-05-07T02:16:08;8.58;;;3.55;;
76606;SDS011;65498;50.916;4.698;2023-05-07T02:18:36;6.90;;;3.02;;
76606;SDS011;65498;50.916;4.698;2023-05-07T02:21:04;7.30;;;3.30;;
76606;SDS011;65498;50.916;4.698;2023-05-07T02:23:31;8.78;;;3.40;;
76606;SDS011;65498;50.916;4.698;2023-05-07T02:25:59;8.05;;;3.10;;
76606;SDS011;65498;50.916;4.698;2023-05-07T02:28:26;9.05;;;3.70;;
76606;SDS011;65498;50.916;4.698;2023-05-07T02:30:54;6.97;;;3.15;;
76606;SDS011;65498;50.916;4.698;2023-05-07T02:33:21;10.80;;;4.53;;
76606;SDS011;65498;50.916;4.698;2023-05-07T02:35:49;7.83;;;2.87;;
76606;SDS011;65498;50.916;4.698;2023-05-07T02:38:17;8.65;;;3.80;;
76606;SDS011;65498;50.916;4.698;2023-05-07T02:40:45;6.90;;;3.00;;
76606;SDS011;65498;50.916;4.698;2023-05-07T02:43:12;8.48;;;3.40;;
76606;SDS011;65498;50.916;4.698;2023-05-07T02:45:40;7.40;;;2.98;;
76606;SDS011;65498;50.916;4.698;2023-05-07T02:48:08;7.60;;;3.37;;
76606;SDS011;65498;50.916;4.698;2023-05-07T02:50:36;8.63;;;3.62;;
76606;SDS011;65498;50.916;4.698;2023-05-07T02:53:04;7.55;;;3.33;;
76606;SDS011;65498;50.916;4.698;2023-05-07T02:55:31;6.80;;;3.10;;
76606;SDS011;65498;50.916;4.698;2023-05-07T02:57:59;7.85;;;3.08;;
76606;SDS011;65498;50.916;4.698;2023-05-07T03:00:26;11.65;;;3.12;;
76606;SDS011;65498;50.916;4.698;2023-05-07T03:02:54;7.47;;;3.17;;
76606;SDS011;65498;50.916;4.698;2023-05-07T03:05:21;8.60;;;3.40;;
76606;SDS011;65498;50.916;4.698;2023-05-07T03:07:49;7.45;;;3.20;;
76606;SDS011;65498;50.916;4.698;2023-05-07T03:10:16;7.65;;;3.17;;
76606;SDS011;65498;50.916;4.698;2023-05-07T03:12:44;7.35;;;2.95;;
76606;SDS011;65498;50.916;4.698;2023-05-07T03:15:11;7.35;;;3.17;;
76606;SDS011;65498;50.916;4.698;2023-05-07T03:17:39;7.62;;;2.92;;
76606;SDS011;65498;50.916;4.698;2023-05-07T03:20:07;8.60;;;2.92;;
76606;SDS011;65498;50.916;4.698;2023-05-07T03:22:35;7.05;;;3.10;;
76606;SDS011;65498;50.916;4.698;2023-05-07T03:25:03;9.15;;;3.62;;
76606;SDS011;65498;50.916;4.698;2023-05-07T03:27:30;8.85;;;3.50;;
76606;SDS011;65498;50.916;4.698;2023-05-07T03:29:59;8.40;;;3.12;;
76606;SDS011;65498;50.916;4.698;2023-05-07T03:32:27;10.27;;;4.33;;
76606;SDS011;65498;50.916;4.698;2023-05-07T03:34:54;9.18;;;3.25;;
76606;SDS011;65498;50.916;4.698;2023-05-07T03:37:22;8.85;;;3.00;;
76606;SDS011;65498;50.916;4.698;2023-05-07T03:39:49;6.97;;;2.85;;
76606;SDS011;65498;50.916;4.698;2023-05-07T03:42:17;6.67;;;3.27;;
76606;SDS011;65498;50.916;4.698;2023-05-07T03:44:44;6.87;;;3.00;;
76606;SDS011;65498;50.916;4.698;2023-05-07T03:47:12;7.58;;;3.47;;
76606;SDS011;65498;50.916;4.698;2023-05-07T03:49:40;6.83;;;2.80;;
76606;SDS011;65498;50.916;4.698;2023-05-07T03:52:07;6.17;;;2.52;;
76606;SDS011;65498;50.916;4.698;2023-05-07T03:54:35;6.15;;;2.83;;
76606;SDS011;65498;50.916;4.698;2023-05-07T03:57:03;7.00;;;3.10;;
76606;SDS011;65498;50.916;4.698;2023-05-07T03:59:30;6.40;;;2.87;;
76606;SDS011;65498;50.916;4.698;2023-05-07T04:01:57;5.50;;;2.40;;
76606;SDS011;65498;50.916;4.698;2023-05-07T04:04:25;6.80;;;2.42;;
76606;SDS011;65498;50.916;4.698;2023-05-07T04:06:53;7.25;;;3.08;;
76606;SDS011;65498;50.916;4.698;2023-05-07T04:09:20;6.87;;;3.12;;
76606;SDS011;65498;50.916;4.698;2023-05-07T04:11:48;6.42;;;3.20;;
76606;SDS011;65498;50.916;4.698;2023-05-07T04:14:15;6.58;;;2.90;;
76606;SDS011;65498;50.916;4.698;2023-05-07T04:16:43;7.45;;;2.98;;
76606;SDS011;65498;50.916;4.698;2023-05-07T04:19:10;6.28;;;2.75;;
76606;SDS011;65498;50.916;4.698;2023-05-07T04:21:38;7.20;;;2.58;;
76606;SDS011;65498;50.916;4.698;2023-05-07T04:24:05;6.85;;;2.83;;
76606;SDS011;65498;50.916;4.698;2023-05-07T04:26:33;6.15;;;2.87;;
76606;SDS011;65498;50.916;4.698;2023-05-07T04:29:01;5.30;;;2.50;;
76606;SDS011;65498;50.916;4.698;2023-05-07T04:31:29;6.17;;;2.83;;
76606;SDS011;65498;50.916;4.698;2023-05-07T04:33:57;6.05;;;2.40;;
76606;SDS011;65498;50.916;4.698;2023-05-07T04:36:25;7.25;;;2.77;;
76606;SDS011;65498;50.916;4.698;2023-05-07T04:38:54;7.33;;;2.92;;
76606;SDS011;65498;50.916;4.698;2023-05-07T04:41:21;6.50;;;2.87;;
76606;SDS011;65498;50.916;4.698;2023-05-07T04:43:49;6.22;;;2.80;;
76606;SDS011;65498;50.916;4.698;2023-05-07T04:46:17;6.80;;;2.67;;
76606;SDS011;65498;50.916;4.698;2023-05-07T04:48:44;6.97;;;2.58;;
76606;SDS011;65498;50.916;4.698;2023-05-07T04:51:12;6.40;;;2.87;;
76606;SDS011;65498;50.916;4.698;2023-05-07T04:53:39;5.80;;;2.62;;
76606;SDS011;65498;50.916;4.698;2023-05-07T04:56:08;6.20;;;2.70;;
76606;SDS011;65498;50.916;4.698;2023-05-07T04:58:36;7.12;;;3.00;;
76606;SDS011;65498;50.916;4.698;2023-05-07T05:01:04;7.40;;;2.60;;
76606;SDS011;65498;50.916;4.698;2023-05-07T05:03:31;5.50;;;2.37;;
76606;SDS011;65498;50.916;4.698;2023-05-07T05:05:59;5.53;;;2.40;;
76606;SDS011;65498;50.916;4.698;2023-05-07T05:08:26;6.97;;;2.52;;
76606;SDS011;65498;50.916;4.698;2023-05-07T05:10:54;5.87;;;2.58;;
76606;SDS011;65498;50.916;4.698;2023-05-07T05:13:21;5.62;;;2.45;;
76606;SDS011;65498;50.916;4.698;2023-05-07T05:15:49;6.20;;;2.27;;
76606;SDS011;65498;50.916;4.698;2023-05-07T05:18:17;6.17;;;3.05;;
76606;SDS011;65498;50.916;4.698;2023-05-07T05:20:44;10.70;;;3.08;;
76606;SDS011;65498;50.916;4.698;2023-05-07T05:23:12;7.08;;;2.80;;
76606;SDS011;65498;50.916;4.698;2023-05-07T05:25:39;9.55;;;3.75;;
76606;SDS011;65498;50.916;4.698;2023-05-07T05:28:07;6.85;;;2.72;;
76606;SDS011;65498;50.916;4.698;2023-05-07T05:30:35;6.40;;;2.65;;
76606;SDS011;65498;50.916;4.698;2023-05-07T05:33:02;5.80;;;2.50;;
76606;SDS011;65498;50.916;4.698;2023-05-07T05:35:30;7.15;;;2.65;;
76606;SDS011;65498;50.916;4.698;2023-05-07T05:37:57;6.00;;;2.83;;
76606;SDS011;65498;50.916;4.698;2023-05-07T05:40:25;6.62;;;2.83;;
76606;SDS011;65498;50.916;4.698;2023-05-07T05:42:52;7.90;;;2.55;;
76606;SDS011;65498;50.916;4.698;2023-05-07T05:45:20;7.30;;;3.42;;
76606;SDS011;65498;50.916;4.698;2023-05-07T05:47:48;5.65;;;2.27;;
76606;SDS011;65498;50.916;4.698;2023-05-07T05:50:16;6.03;;;2.87;;
76606;SDS011;65498;50.916;4.698;2023-05-07T05:52:43;6.28;;;2.42;;
76606;SDS011;65498;50.916;4.698;2023-05-07T05:55:11;6.55;;;2.62;;
76606;SDS011;65498;50.916;4.698;2023-05-07T05:57:38;7.83;;;3.10;;
76606;SDS011;65498;50.916;4.698;2023-05-07T06:00:06;6.58;;;2.40;;
76606;SDS011;65498;50.916;4.698;2023-05-07T06:02:34;6.62;;;2.77;;
76606;SDS011;65498;50.916;4.698;2023-05-07T06:05:02;5.60;;;2.47;;
76606;SDS011;65498;50.916;4.698;2023-05-07T06:07:30;7.20;;;2.77;;
76606;SDS011;65498;50.916;4.698;2023-05-07T06:09:58;6.55;;;2.60;;
76606;SDS011;65498;50.916;4.698;2023-05-07T06:12:25;6.97;;;2.45;;
76606;SDS011;65498;50.916;4.698;2023-05-07T06:14:53;8.28;;;3.20;;
76606;SDS011;65498;50.916;4.698;2023-05-07T06:17:20;6.42;;;2.58;;
76606;SDS011;65498;50.916;4.698;2023-05-07T06:19:48;5.30;;;2.67;;
76606;SDS011;65498;50.916;4.698;2023-05-07T06:22:15;5.70;;;2.55;;
76606;SDS011;65498;50.916;4.698;2023-05-07T06:24:43;7.10;;;2.70;;
76606;SDS011;65498;50.916;4.698;2023-05-07T06:27:11;7.08;;;2.45;;
76606;SDS011;65498;50.916;4.698;2023-05-07T06:29:38;5.72;;;2.30;;
76606;SDS011;65498;50.916;4.698;2023-05-07T06:32:09;7.17;;;2.47;;
76606;SDS011;65498;50.916;4.698;2023-05-07T06:34:38;6.87;;;2.92;;
76606;SDS011;65498;50.916;4.698;2023-05-07T06:37:06;5.08;;;2.37;;
76606;SDS011;65498;50.916;4.698;2023-05-07T06:39:34;5.80;;;3.00;;
76606;SDS011;65498;50.916;4.698;2023-05-07T06:42:02;8.65;;;2.77;;
76606;SDS011;65498;50.916;4.698;2023-05-07T06:44:30;5.33;;;2.40;;
76606;SDS011;65498;50.916;4.698;2023-05-07T06:46:58;5.62;;;2.50;;
76606;SDS011;65498;50.916;4.698;2023-05-07T06:49:25;5.67;;;2.15;;
76606;SDS011;65498;50.916;4.698;2023-05-07T06:51:53;5.75;;;2.45;;
76606;SDS011;65498;50.916;4.698;2023-05-07T06:54:21;6.00;;;2.37;;
76606;SDS011;65498;50.916;4.698;2023-05-07T06:56:49;6.20;;;2.65;;
76606;SDS011;65498;50.916;4.698;2023-05-07T06:59:17;6.47;;;2.83;;
76606;SDS011;65498;50.916;4.698;2023-05-07T07:01:45;7.75;;;3.08;;
76606;SDS011;65498;50.916;4.698;2023-05-07T07:04:12;5.30;;;2.47;;
76606;SDS011;65498;50.916;4.698;2023-05-07T07:06:40;7.33;;;2.60;;
76606;SDS011;65498;50.916;4.698;2023-05-07T07:09:08;6.62;;;3.00;;
76606;SDS011;65498;50.916;4.698;2023-05-07T07:11:35;5.40;;;2.10;;
76606;SDS011;65498;50.916;4.698;2023-05-07T07:14:03;7.62;;;2.47;;
76606;SDS011;65498;50.916;4.698;2023-05-07T07:16:31;5.20;;;2.40;;
76606;SDS011;65498;50.916;4.698;2023-05-07T07:18:58;5.45;;;2.40;;
76606;SDS011;65498;50.916;4.698;2023-05-07T07:21:26;5.87;;;2.70;;
76606;SDS011;65498;50.916;4.698;2023-05-07T07:23:53;6.37;;;2.42;;
76606;SDS011;65498;50.916;4.698;2023-05-07T07:26:21;7.35;;;2.90;;
76606;SDS011;65498;50.916;4.698;2023-05-07T07:28:48;7.80;;;2.55;;
76606;SDS011;65498;50.916;4.698;2023-05-07T07:31:16;7.05;;;2.55;;
76606;SDS011;65498;50.916;4.698;2023-05-07T07:33:44;7.85;;;2.80;;
76606;SDS011;65498;50.916;4.698;2023-05-07T07:36:11;6.25;;;2.70;;
76606;SDS011;65498;50.916;4.698;2023-05-07T07:38:38;8.15;;;2.70;;
76606;SDS011;65498;50.916;4.698;2023-05-07T07:41:07;7.00;;;2.77;;
76606;SDS011;65498;50.916;4.698;2023-05-07T07:43:35;5.97;;;2.50;;
76606;SDS011;65498;50.916;4.698;2023-05-07T07:46:03;6.92;;;2.62;;
76606;SDS011;65498;50.916;4.698;2023-05-07T07:48:30;5.72;;;2.50;;
76606;SDS011;65498;50.916;4.698;2023-05-07T07:50:58;7.60;;;2.60;;
76606;SDS011;65498;50.916;4.698;2023-05-07T07:53:26;8.98;;;3.05;;
76606;SDS011;65498;50.916;4.698;2023-05-07T07:55:53;7.35;;;2.60;;
76606;SDS011;65498;50.916;4.698;2023-05-07T07:58:21;6.78;;;2.60;;
76606;SDS011;65498;50.916;4.698;2023-05-07T08:00:50;7.35;;;2.67;;
76606;SDS011;65498;50.916;4.698;2023-05-07T08:03:18;7.08;;;2.80;;
76606;SDS011;65498;50.916;4.698;2023-05-07T08:05:45;7.62;;;2.70;;
76606;SDS011;65498;50.916;4.698;2023-05-07T08:08:13;6.40;;;2.65;;
76606;SDS011;65498;50.916;4.698;2023-05-07T08:10:40;9.53;;;3.35;;
76606;SDS011;65498;50.916;4.698;2023-05-07T08:13:08;6.95;;;2.83;;
76606;SDS011;65498;50.916;4.698;2023-05-07T08:15:36;7.25;;;2.55;;
76606;SDS011;65498;50.916;4.698;2023-05-07T08:18:03;8.23;;;2.98;;
76606;SDS011;65498;50.916;4.698;2023-05-07T08:20:31;7.17;;;2.55;;
76606;SDS011;65498;50.916;4.698;2023-05-07T08:22:59;6.62;;;2.50;;
76606;SDS011;65498;50.916;4.698;2023-05-07T08:25:26;7.33;;;2.87;;
76606;SDS011;65498;50.916;4.698;2023-05-07T08:27:54;7.70;;;2.22;;
76606;SDS011;65498;50.916;4.698;2023-05-07T08:30:21;7.72;;;2.70;;
76606;SDS011;65498;50.916;4.698;2023-05-07T08:32:49;7.83;;;2.70;;
76606;SDS011;65498;50.916;4.698;2023-05-07T08:35:16;7.12;;;2.95;;
76606;SDS011;65498;50.916;4.698;2023-05-07T08:37:44;6.65;;;2.42;;
76606;SDS011;65498;50.916;4.698;2023-05-07T08:40:11;7.05;;;2.67;;
76606;SDS011;65498;50.916;4.698;2023-05-07T08:42:39;5.30;;;2.70;;
76606;SDS011;65498;50.916;4.698;2023-05-07T08:45:08;6.58;;;2.50;;
76606;SDS011;65498;50.916;4.698;2023-05-07T08:47:42;6.60;;;2.42;;
76606;SDS011;65498;50.916;4.698;2023-05-07T08:50:13;8.70;;;3.40;;
76606;SDS011;65498;50.916;4.698;2023-05-07T08:52:41;7.17;;;2.70;;
76606;SDS011;65498;50.916;4.698;2023-05-07T08:55:09;6.97;;;3.12;;
76606;SDS011;65498;50.916;4.698;2023-05-07T08:57:37;6.35;;;2.60;;
76606;SDS011;65498;50.916;4.698;2023-05-07T09:00:05;7.12;;;2.80;;
76606;SDS011;65498;50.916;4.698;2023-05-07T09:02:38;5.80;;;2.40;;
76606;SDS011;65498;50.916;4.698;2023-05-07T09:05:02;6.62;;;2.70;;
76606;SDS011;65498;50.916;4.698;2023-05-07T09:07:31;6.60;;;2.55;;
76606;SDS011;65498;50.916;4.698;2023-05-07T09:10:00;6.03;;;2.58;;
76606;SDS011;65498;50.916;4.698;2023-05-07T09:12:28;5.47;;;2.30;;
76606;SDS011;65498;50.916;4.698;2023-05-07T09:14:56;6.50;;;2.60;;
76606;SDS011;65498;50.916;4.698;2023-05-07T09:17:25;5.83;;;2.22;;
76606;SDS011;65498;50.916;4.698;2023-05-07T09:19:53;6.60;;;2.60;;
76606;SDS011;65498;50.916;4.698;2023-05-07T09:22:21;6.05;;;2.70;;
76606;SDS011;65498;50.916;4.698;2023-05-07T09:24:49;7.20;;;2.77;;
76606;SDS011;65498;50.916;4.698;2023-05-07T09:27:17;5.80;;;2.40;;
76606;SDS011;65498;50.916;4.698;2023-05-07T09:29:45;6.35;;;2.58;;
76606;SDS011;65498;50.916;4.698;2023-05-07T09:32:12;6.17;;;2.50;;
76606;SDS011;65498;50.916;4.698;2023-05-07T09:34:42;8.40;;;2.55;;
76606;SDS011;65498;50.916;4.698;2023-05-07T09:37:10;7.90;;;2.72;;
76606;SDS011;65498;50.916;4.698;2023-05-07T09:39:41;6.20;;;2.70;;
76606;SDS011;65498;50.916;4.698;2023-05-07T09:42:27;8.58;;;2.95;;
76606;SDS011;65498;50.916;4.698;2023-05-07T09:44:55;6.17;;;2.30;;
76606;SDS011;65498;50.916;4.698;2023-05-07T09:47:23;6.80;;;2.58;;
76606;SDS011;65498;50.916;4.698;2023-05-07T09:49:54;5.95;;;2.40;;
76606;SDS011;65498;50.916;4.698;2023-05-07T09:52:23;6.92;;;2.55;;
76606;SDS011;65498;50.916;4.698;2023-05-07T09:54:53;7.35;;;2.83;;
76606;SDS011;65498;50.916;4.698;2023-05-07T09:57:25;9.03;;;2.47;;
76606;SDS011;65498;50.916;4.698;2023-05-07T09:59:54;5.53;;;2.30;;
76606;SDS011;65498;50.916;4.698;2023-05-07T10:02:25;6.33;;;2.67;;
76606;SDS011;65498;50.916;4.698;2023-05-07T10:04:54;4.67;;;2.02;;
76606;SDS011;65498;50.916;4.698;2023-05-07T10:07:23;6.10;;;2.40;;
76606;SDS011;65498;50.916;4.698;2023-05-07T10:09:51;7.03;;;2.42;;
76606;SDS011;65498;50.916;4.698;2023-05-07T10:12:20;7.00;;;2.70;;
76606;SDS011;65498;50.916;4.698;2023-05-07T10:14:48;7.65;;;2.52;;
76606;SDS011;65498;50.916;4.698;2023-05-07T10:17:19;6.12;;;2.52;;
76606;SDS011;65498;50.916;4.698;2023-05-07T10:19:46;6.53;;;3.12;;
76606;SDS011;65498;50.916;4.698;2023-05-07T10:22:16;6.37;;;2.42;;
76606;SDS011;65498;50.916;4.698;2023-05-07T10:24:44;9.35;;;3.95;;
76606;SDS011;65498;50.916;4.698;2023-05-07T10:27:13;7.65;;;2.80;;
76606;SDS011;65498;50.916;4.698;2023-05-07T10:32:35;7.37;;;3.33;;
76606;SDS011;65498;50.916;4.698;2023-05-07T10:35:25;10.10;;;5.20;;
76606;SDS011;65498;50.916;4.698;2023-05-07T10:37:50;7.95;;;3.92;;
76606;SDS011;65498;50.916;4.698;2023-05-07T10:40:18;8.25;;;3.62;;
76606;SDS011;65498;50.916;4.698;2023-05-07T10:43:00;7.92;;;3.95;;
76606;SDS011;65498;50.916;4.698;2023-05-07T10:45:30;12.07;;;3.80;;
76606;SDS011;65498;50.916;4.698;2023-05-07T10:48:10;7.55;;;3.83;;
76606;SDS011;65498;50.916;4.698;2023-05-07T10:50:43;7.08;;;3.37;;
76606;SDS011;65498;50.916;4.698;2023-05-07T10:56:24;7.90;;;3.75;;
76606;SDS011;65498;50.916;4.698;2023-05-07T10:58:39;8.65;;;3.98;;
76606;SDS011;65498;50.916;4.698;2023-05-07T11:01:06;7.65;;;3.47;;
76606;SDS011;65498;50.916;4.698;2023-05-07T11:03:35;8.90;;;3.50;;
76606;SDS011;65498;50.916;4.698;2023-05-07T11:06:11;9.13;;;4.15;;
76606;SDS011;65498;50.916;4.698;2023-05-07T11:08:53;8.60;;;3.75;;
76606;SDS011;65498;50.916;4.698;2023-05-07T11:15:32;7.30;;;3.00;;
76606;SDS011;65498;50.916;4.698;2023-05-07T11:17:10;8.85;;;3.12;;
76606;SDS011;65498;50.916;4.698;2023-05-07T11:19:47;11.90;;;5.22;;
76606;SDS011;65498;50.916;4.698;2023-05-07T11:25:04;11.33;;;3.98;;
76606;SDS011;65498;50.916;4.698;2023-05-07T11:27:33;15.23;;;5.22;;
76606;SDS011;65498;50.916;4.698;2023-05-07T11:30:00;11.55;;;3.35;;
76606;SDS011;65498;50.916;4.698;2023-05-07T11:32:29;13.25;;;4.50;;
76606;SDS011;65498;50.916;4.698;2023-05-07T11:34:58;15.53;;;4.67;;
76606;SDS011;65498;50.916;4.698;2023-05-07T11:37:27;11.35;;;3.58;;
76606;SDS011;65498;50.916;4.698;2023-05-07T11:40:07;11.30;;;4.03;;
76606;SDS011;65498;50.916;4.698;2023-05-07T11:42:32;15.13;;;4.05;;
76606;SDS011;65498;50.916;4.698;2023-05-07T11:45:03;11.43;;;4.03;;
76606;SDS011;65498;50.916;4.698;2023-05-07T11:47:33;11.45;;;3.70;;
76606;SDS011;65498;50.916;4.698;2023-05-07T11:50:02;7.37;;;2.87;;
76606;SDS011;65498;50.916;4.698;2023-05-07T11:52:32;8.25;;;3.40;;
76606;SDS011;65498;50.916;4.698;2023-05-07T11:55:00;8.13;;;3.65;;
76606;SDS011;65498;50.916;4.698;2023-05-07T11:57:30;11.10;;;3.10;;
76606;SDS011;65498;50.916;4.698;2023-05-07T12:00:01;9.25;;;3.30;;
76606;SDS011;65498;50.916;4.698;2023-05-07T12:02:30;9.75;;;2.90;;
76606;SDS011;65498;50.916;4.698;2023-05-07T12:04:58;9.88;;;3.30;;
76606;SDS011;65498;50.916;4.698;2023-05-07T12:07:28;7.97;;;2.90;;
76606;SDS011;65498;50.916;4.698;2023-05-07T12:09:57;8.68;;;3.25;;
76606;SDS011;65498;50.916;4.698;2023-05-07T12:12:25;10.43;;;3.80;;
76606;SDS011;65498;50.916;4.698;2023-05-07T12:14:52;9.43;;;3.12;;
76606;SDS011;65498;50.916;4.698;2023-05-07T12:17:20;7.97;;;3.02;;
76606;SDS011;65498;50.916;4.698;2023-05-07T12:19:48;8.93;;;3.37;;
76606;SDS011;65498;50.916;4.698;2023-05-07T12:22:16;7.47;;;3.10;;
76606;SDS011;65498;50.916;4.698;2023-05-07T12:24:49;7.47;;;2.87;;
76606;SDS011;65498;50.916;4.698;2023-05-07T12:27:18;7.87;;;3.15;;
76606;SDS011;65498;50.916;4.698;2023-05-07T12:29:49;7.60;;;2.35;;
76606;SDS011;65498;50.916;4.698;2023-05-07T12:32:18;9.13;;;3.40;;
76606;SDS011;65498;50.916;4.698;2023-05-07T12:37:15;9.53;;;2.80;;
76606;SDS011;65498;50.916;4.698;2023-05-07T12:40:02;8.25;;;3.83;;
76606;SDS011;65498;50.916;4.698;2023-05-07T12:42:37;8.50;;;2.90;;
76606;SDS011;65498;50.916;4.698;2023-05-07T12:45:12;7.53;;;2.83;;
76606;SDS011;65498;50.916;4.698;2023-05-07T12:47:45;7.65;;;2.52;;
76606;SDS011;65498;50.916;4.698;2023-05-07T12:50:13;6.22;;;2.65;;
76606;SDS011;65498;50.916;4.698;2023-05-07T12:52:45;7.50;;;3.20;;
76606;SDS011;65498;50.916;4.698;2023-05-07T12:55:15;6.45;;;2.60;;
76606;SDS011;65498;50.916;4.698;2023-05-07T12:57:45;7.97;;;2.80;;
76606;SDS011;65498;50.916;4.698;2023-05-07T13:00:17;6.60;;;2.65;;
76606;SDS011;65498;50.916;4.698;2023-05-07T13:02:46;5.92;;;2.42;;
76606;SDS011;65498;50.916;4.698;2023-05-07T13:05:14;7.30;;;2.72;;
76606;SDS011;65498;50.916;4.698;2023-05-07T13:07:51;8.65;;;2.80;;
76606;SDS011;65498;50.916;4.698;2023-05-07T13:10:12;6.03;;;2.50;;
76606;SDS011;65498;50.916;4.698;2023-05-07T13:12:40;5.85;;;2.27;;
76606;SDS011;65498;50.916;4.698;2023-05-07T13:15:07;7.33;;;2.62;;
76606;SDS011;65498;50.916;4.698;2023-05-07T13:17:35;7.08;;;2.70;;
76606;SDS011;65498;50.916;4.698;2023-05-07T13:20:04;7.45;;;3.02;;
76606;SDS011;65498;50.916;4.698;2023-05-07T13:22:32;6.40;;;2.40;;
76606;SDS011;65498;50.916;4.698;2023-05-07T13:24:59;6.30;;;2.85;;
76606;SDS011;65498;50.916;4.698;2023-05-07T13:27:27;8.25;;;2.60;;
76606;SDS011;65498;50.916;4.698;2023-05-07T13:29:56;9.18;;;3.05;;
76606;SDS011;65498;50.916;4.698;2023-05-07T13:32:24;8.05;;;2.95;;
76606;SDS011;65498;50.916;4.698;2023-05-07T13:34:51;7.83;;;3.40;;
76606;SDS011;65498;50.916;4.698;2023-05-07T13:37:19;7.70;;;3.27;;
76606;SDS011;65498;50.916;4.698;2023-05-07T13:39:46;8.63;;;3.05;;
76606;SDS011;65498;50.916;4.698;2023-05-07T13:42:14;9.13;;;3.08;;
76606;SDS011;65498;50.916;4.698;2023-05-07T13:44:41;8.83;;;3.30;;
76606;SDS011;65498;50.916;4.698;2023-05-07T13:47:10;8.35;;;3.40;;
76606;SDS011;65498;50.916;4.698;2023-05-07T13:49:38;7.30;;;3.15;;
76606;SDS011;65498;50.916;4.698;2023-05-07T13:52:05;9.45;;;3.67;;
76606;SDS011;65498;50.916;4.698;2023-05-07T13:54:33;7.95;;;2.80;;
76606;SDS011;65498;50.916;4.698;2023-05-07T13:57:00;8.60;;;2.80;;
76606;SDS011;65498;50.916;4.698;2023-05-07T13:59:28;8.18;;;2.83;;
76606;SDS011;65498;50.916;4.698;2023-05-07T14:01:55;7.67;;;2.80;;
76606;SDS011;65498;50.916;4.698;2023-05-07T14:04:23;11.10;;;3.00;;
76606;SDS011;65498;50.916;4.698;2023-05-07T14:06:51;7.50;;;2.65;;
76606;SDS011;65498;50.916;4.698;2023-05-07T14:09:18;9.00;;;3.35;;
76606;SDS011;65498;50.916;4.698;2023-05-07T14:11:46;6.58;;;2.65;;
76606;SDS011;65498;50.916;4.698;2023-05-07T14:14:15;6.80;;;2.70;;
76606;SDS011;65498;50.916;4.698;2023-05-07T14:16:42;5.62;;;2.47;;
76606;SDS011;65498;50.916;4.698;2023-05-07T14:19:15;7.60;;;2.95;;
76606;SDS011;65498;50.916;4.698;2023-05-07T14:21:39;7.55;;;2.65;;
76606;SDS011;65498;50.916;4.698;2023-05-07T14:24:07;7.33;;;2.40;;
76606;SDS011;65498;50.916;4.698;2023-05-07T14:26:35;8.70;;;2.60;;
76606;SDS011;65498;50.916;4.698;2023-05-07T14:29:03;6.67;;;3.15;;
76606;SDS011;65498;50.916;4.698;2023-05-07T14:31:30;7.37;;;2.70;;
76606;SDS011;65498;50.916;4.698;2023-05-07T14:33:59;7.17;;;3.12;;
76606;SDS011;65498;50.916;4.698;2023-05-07T14:36:26;6.78;;;2.40;;
76606;SDS011;65498;50.916;4.698;2023-05-07T14:38:55;6.65;;;2.65;;
76606;SDS011;65498;50.916;4.698;2023-05-07T14:41:25;7.00;;;2.40;;
76606;SDS011;65498;50.916;4.698;2023-05-07T14:43:52;9.95;;;2.70;;
76606;SDS011;65498;50.916;4.698;2023-05-07T14:46:20;7.12;;;2.33;;
76606;SDS011;65498;50.916;4.698;2023-05-07T14:48:49;7.35;;;2.40;;
76606;SDS011;65498;50.916;4.698;2023-05-07T14:51:17;7.45;;;2.47;;
76606;SDS011;65498;50.916;4.698;2023-05-07T14:53:44;7.55;;;2.47;;
76606;SDS011;65498;50.916;4.698;2023-05-07T14:56:12;6.83;;;2.45;;
76606;SDS011;65498;50.916;4.698;2023-05-07T14:58:39;7.40;;;2.52;;
76606;SDS011;65498;50.916;4.698;2023-05-07T15:01:07;7.00;;;2.50;;
76606;SDS011;65498;50.916;4.698;2023-05-07T15:03:35;7.22;;;2.45;;
76606;SDS011;65498;50.916;4.698;2023-05-07T15:06:02;10.78;;;2.70;;